Annelisa — DUGT — position and weather

sailwx.info

Track history (hours):
 
Tides and Currents Weather Stations Pressure Air Temp Water Temp Dewpoint Dewpoint Depression Visibility Wind Speed Wind Dir Waves Ship Positions

Annelisa

Last reported at 2017-Nov-24 03:29 UTC. Time now 2017-Nov-24 03:34 UTC.
Position N 14°36' W 061°03'.

Length 138 m; draft 5.2 m.

Type: Other ship. MMSI: 548903000.

Date/timePositionNaut miles runAvg speedWind from/ knotsBaromVisibWave heightAir tempDewpointWater temp
2017-Nov-24 03:29N 14°36' W 061°03'0 0.0
2017-Nov-24 02:59N 14°36' W 061°03'0 0.0
2017-Nov-24 02:29N 14°36' W 061°03'0 0.0
2017-Nov-24 01:59N 14°36' W 061°03'0 0.0
2017-Nov-24 01:29N 14°36' W 061°03'0 0.0
2017-Nov-24 00:59N 14°36' W 061°03'0 0.0
2017-Nov-24 00:29N 14°36' W 061°03'0 0.0
2017-Nov-23 23:59N 14°36' W 061°03'0 0.0
2017-Nov-23 23:26N 14°36' W 061°03'0 0.0
2017-Nov-23 22:59N 14°36' W 061°03'0 0.0
2017-Nov-23 22:26N 14°36' W 061°03'0 0.0
2017-Nov-23 21:53N 14°36' W 061°03'0 0.0
2017-Nov-23 21:23N 14°36' W 061°03'0 0.0
2017-Nov-23 20:23N 14°36' W 061°03'0 0.0
2017-Nov-23 19:53N 14°36' W 061°03'0 0.1
2017-Nov-23 15:41N 14°35' W 061°03'1 3.1
2017-Nov-23 15:30N 14°36' W 061°04'0 0.0
2017-Nov-23 11:32N 14°36' W 061°04'0 0.0
2017-Nov-23 11:05N 14°36' W 061°04'0 0.0
2017-Nov-23 10:56N 14°36' W 061°04'0 0.0
2017-Nov-23 10:02N 14°36' W 061°04'0 0.0
2017-Nov-23 09:50N 14°36' W 061°04'0 0.0
2017-Nov-23 06:14N 14°36' W 061°04'0 0.0
2017-Nov-23 05:50N 14°36' W 061°04'0 0.0
2017-Nov-23 05:26N 14°36' W 061°04'  
2017-Nov-20 00:15N 14°42' W 061°30'5910.6
2017-Nov-19 18:41N 15°41' W 061°34'2610.3
2017-Nov-19 16:08N 16°06' W 061°27'111.1
2017-Nov-19 16:00N 16°07' W 061°28'5 9.3
2017-Nov-19 15:27N 16°11' W 061°31'3 5.5
2017-Nov-19 14:55N 16°14' W 061°33'0 0.0
2017-Nov-19 14:28N 16°14' W 061°33'0 0.0
2017-Nov-19 13:58N 16°14' W 061°33'0 0.0
2017-Nov-19 13:28N 16°14' W 061°33'0 0.0
2017-Nov-19 12:58N 16°14' W 061°33'0 0.0
2017-Nov-19 12:28N 16°14' W 061°33'0 0.0
2017-Nov-19 11:58N 16°14' W 061°33'0 0.0
2017-Nov-19 11:28N 16°14' W 061°33'0 0.0
2017-Nov-19 10:58N 16°14' W 061°33'0 0.0
2017-Nov-19 10:28N 16°14' W 061°33'0 0.0
2017-Nov-19 09:58N 16°14' W 061°33'0 0.0
2017-Nov-19 09:28N 16°14' W 061°33'0 0.0
2017-Nov-19 08:58N 16°14' W 061°33'0 0.0
2017-Nov-19 08:28N 16°14' W 061°33'0 0.0
2017-Nov-19 07:58N 16°14' W 061°33'0 0.0
2017-Nov-19 07:25N 16°14' W 061°33'0 0.0
2017-Nov-19 06:58N 16°14' W 061°33'0 0.0
2017-Nov-19 06:28N 16°14' W 061°33'0 0.0
2017-Nov-19 05:58N 16°14' W 061°33'0 0.0
2017-Nov-19 05:28N 16°14' W 061°33'0 0.0
2017-Nov-19 04:58N 16°14' W 061°33'0 0.0
2017-Nov-19 04:28N 16°14' W 061°33'0 0.0
2017-Nov-19 03:58N 16°14' W 061°33'0 0.0
2017-Nov-19 03:28N 16°14' W 061°33'0 0.0
2017-Nov-19 02:58N 16°14' W 061°33'0 0.0
2017-Nov-19 02:28N 16°14' W 061°33'0 0.0
2017-Nov-19 01:58N 16°14' W 061°33'0 0.0
2017-Nov-19 01:28N 16°14' W 061°33'0 0.0
2017-Nov-19 00:58N 16°14' W 061°33'0 0.0
2017-Nov-19 00:28N 16°14' W 061°33'0 0.0
2017-Nov-18 23:58N 16°14' W 061°33'0 0.0
2017-Nov-18 23:28N 16°14' W 061°33'0 0.0
2017-Nov-18 22:58N 16°14' W 061°33'0 0.0
2017-Nov-18 22:28N 16°14' W 061°33'0 0.0
2017-Nov-18 21:58N 16°14' W 061°33'0 0.0
2017-Nov-18 21:28N 16°14' W 061°33'0 0.0
2017-Nov-18 20:58N 16°14' W 061°33'0 0.0
2017-Nov-18 20:28N 16°14' W 061°33'0 0.0
2017-Nov-18 19:55N 16°14' W 061°33'0 0.0
2017-Nov-18 19:28N 16°14' W 061°33'0 0.0
2017-Nov-18 18:52N 16°14' W 061°33'0 0.0
2017-Nov-18 18:28N 16°14' W 061°33'0 0.0
2017-Nov-18 17:58N 16°14' W 061°33'0 0.0
2017-Nov-18 17:28N 16°14' W 061°33'0 0.0
2017-Nov-18 16:58N 16°14' W 061°33'0 0.0
2017-Nov-18 16:28N 16°14' W 061°33'0 0.0
2017-Nov-18 15:55N 16°14' W 061°33'0 0.0
2017-Nov-18 15:28N 16°14' W 061°33'0 0.0
2017-Nov-18 14:55N 16°14' W 061°33'0 0.0
2017-Nov-18 14:25N 16°14' W 061°33'0 0.0
2017-Nov-18 13:55N 16°14' W 061°33'0 0.0
2017-Nov-18 13:28N 16°14' W 061°33'0 0.0
2017-Nov-18 12:58N 16°14' W 061°33'0 0.0
2017-Nov-18 12:25N 16°14' W 061°33'0 0.0
2017-Nov-18 11:58N 16°14' W 061°33'0 0.0
2017-Nov-18 11:28N 16°14' W 061°33'0 0.0
2017-Nov-18 10:58N 16°14' W 061°33'0 0.0
2017-Nov-18 10:28N 16°14' W 061°33'0 0.0
2017-Nov-18 09:58N 16°14' W 061°33'0 0.0
2017-Nov-18 09:25N 16°14' W 061°33'0 0.0
2017-Nov-18 08:58N 16°14' W 061°33'0 0.0
2017-Nov-18 08:28N 16°14' W 061°33'0 0.0
2017-Nov-18 07:58N 16°14' W 061°33'0 0.0
2017-Nov-18 07:28N 16°14' W 061°33'0 0.0
2017-Nov-18 06:55N 16°14' W 061°33'0 0.0
2017-Nov-18 06:25N 16°14' W 061°33'0 0.0
2017-Nov-18 05:58N 16°14' W 061°33'0 0.0
2017-Nov-18 05:28N 16°14' W 061°33'0 0.0
2017-Nov-18 04:58N 16°14' W 061°33'0 0.0
2017-Nov-18 04:28N 16°14' W 061°33'0 0.0
2017-Nov-18 03:58N 16°14' W 061°33'0 0.0
2017-Nov-18 03:28N 16°14' W 061°33'0 0.0
2017-Nov-18 02:58N 16°14' W 061°33'0 0.0
2017-Nov-18 02:28N 16°14' W 061°33'0 0.0
2017-Nov-18 01:58N 16°14' W 061°33'0 0.0
2017-Nov-18 01:22N 16°14' W 061°33'0 0.0
2017-Nov-18 00:58N 16°14' W 061°33'0 0.0
2017-Nov-18 00:28N 16°14' W 061°33'0 0.0
2017-Nov-17 23:58N 16°14' W 061°33'0 0.0
2017-Nov-17 23:28N 16°14' W 061°33'0 0.0
2017-Nov-17 22:58N 16°14' W 061°33'0 0.0
2017-Nov-17 22:22N 16°14' W 061°33'0 0.0
2017-Nov-17 21:58N 16°14' W 061°33'0 0.0
2017-Nov-17 21:28N 16°14' W 061°33'0 0.0
2017-Nov-17 20:58N 16°14' W 061°33'0 0.0
2017-Nov-17 20:28N 16°14' W 061°33'0 0.0
2017-Nov-17 19:55N 16°14' W 061°33'0 0.0
2017-Nov-17 19:28N 16°14' W 061°33'0 0.0
2017-Nov-17 18:58N 16°14' W 061°33'0 0.0
2017-Nov-17 18:25N 16°14' W 061°33'0 0.0
2017-Nov-17 17:58N 16°14' W 061°33'0 0.0
2017-Nov-17 17:25N 16°14' W 061°33'0 0.0
2017-Nov-17 16:58N 16°14' W 061°33'0 0.0
2017-Nov-17 16:25N 16°14' W 061°33'0 0.0
2017-Nov-17 15:58N 16°14' W 061°33'0 0.0
2017-Nov-17 15:19N 16°14' W 061°33'0 0.0
2017-Nov-17 14:58N 16°14' W 061°33'0 0.0
2017-Nov-17 14:28N 16°14' W 061°33'0 0.0
2017-Nov-17 13:58N 16°14' W 061°33'0 0.0
2017-Nov-17 13:28N 16°14' W 061°33'0 0.0
2017-Nov-17 12:49N 16°14' W 061°33'0 0.0
2017-Nov-17 12:28N 16°14' W 061°33'0 0.0
2017-Nov-17 11:58N 16°14' W 061°33'0 0.0
2017-Nov-17 11:25N 16°14' W 061°33'0 0.0
2017-Nov-17 10:55N 16°14' W 061°33'0 0.0
2017-Nov-17 10:28N 16°14' W 061°33'0 0.0
2017-Nov-17 09:55N 16°14' W 061°33'0 0.0
2017-Nov-17 09:19N 16°14' W 061°33'0 0.0
2017-Nov-17 08:58N 16°14' W 061°33'0 0.0
2017-Nov-17 08:25N 16°14' W 061°33'0 0.0
2017-Nov-17 07:55N 16°14' W 061°33'0 0.0
2017-Nov-17 07:28N 16°14' W 061°33'0 0.0
2017-Nov-17 06:58N 16°14' W 061°33'0 0.0
2017-Nov-17 06:22N 16°14' W 061°33'0 0.0
2017-Nov-17 05:58N 16°14' W 061°33'0 0.0
2017-Nov-17 05:28N 16°14' W 061°33'0 0.0
2017-Nov-17 04:55N 16°14' W 061°33'0 0.0
2017-Nov-17 04:28N 16°14' W 061°33'0 0.0
2017-Nov-17 03:58N 16°14' W 061°33'0 0.0
2017-Nov-17 03:25N 16°14' W 061°33'0 0.0
2017-Nov-17 02:58N 16°14' W 061°33'0 0.0
2017-Nov-17 02:28N 16°14' W 061°33'0 0.0
2017-Nov-17 01:52N 16°14' W 061°33'0 0.0
2017-Nov-17 01:22N 16°14' W 061°33'0 0.0
2017-Nov-17 01:00N 16°14' W 061°33'0 0.2
2017-Nov-17 00:30N 16°14' W 061°33'1 1.4
2017-Nov-17 00:00N 16°14' W 061°32'4 8.3
2017-Nov-16 23:30N 16°10' W 061°31'811.1
2017-Nov-16 22:45N 16°01' W 061°30'1510.9
2017-Nov-16 21:24N 15°47' W 061°34'711.0
2017-Nov-16 20:48N 15°47' W 061°41'12 0.3
2017-Nov-15 08:53N 15°58' W 061°46'1 2.9
2017-Nov-15 08:26N 15°59' W 061°45'3 7.9
2017-Nov-15 08:00N 16°00' W 061°48'610.7
2017-Nov-15 07:28N 16°03' W 061°54'4 3.1
2017-Nov-15 06:10N 16°04' W 061°58'211.4
2017-Nov-15 05:57N 16°06' W 061°58'511.2
2017-Nov-15 05:30N 16°11' W 061°59'611.5
2017-Nov-15 05:00N 16°17' W 062°01'611.6
2017-Nov-15 04:30N 16°22' W 062°02'611.4
2017-Nov-15 04:00N 16°28' W 062°03'3 6.2
2017-Nov-15 03:30N 16°29' W 062°06'611.6
2017-Nov-15 03:00N 16°23' W 062°06'611.6
2017-Nov-15 02:30N 16°18' W 062°06'12 6.5
2017-Nov-15 00:40N 16°09' W 062°15'210.4
2017-Nov-15 00:29N 16°11' W 062°15'511.1
2017-Nov-15 00:00N 16°16' W 062°15'611.8
2017-Nov-14 23:30N 16°22' W 062°15'611.3
2017-Nov-14 22:59N 16°25' W 062°10'611.7
2017-Nov-14 22:30N 16°28' W 062°04'611.6
2017-Nov-14 22:00N 16°30' W 061°59'611.7
2017-Nov-14 21:30N 16°32' W 061°53'611.8
2017-Nov-14 21:00N 16°35' W 061°48'611.3
2017-Nov-14 20:30N 16°37' W 061°42'611.4
2017-Nov-14 20:00N 16°40' W 061°37'611.6
2017-Nov-14 19:30N 16°42' W 061°32'611.7
2017-Nov-14 19:00N 16°45' W 061°26'611.8
2017-Nov-14 18:30N 16°47' W 061°21'611.8
2017-Nov-14 18:00N 16°50' W 061°15'611.4
2017-Nov-14 17:30N 16°52' W 061°10'611.3
2017-Nov-14 17:00N 16°55' W 061°04'611.4
2017-Nov-14 16:30N 16°57' W 060°59'  
Track history (hours):
 
Tides and Currents Weather Stations Pressure Air Temp Water Temp Dewpoint Dewpoint Depression Visibility Wind Speed Wind Dir Waves Ship Positions

Annelisa

Last reported at 2017-Nov-24 03:29 UTC. Time now 2017-Nov-24 03:34 UTC.
Position N 14°36' W 061°03'.

Length 138 m; draft 5.2 m.

Type: Other ship. MMSI: 548903000.

Date/timePositionNaut miles runAvg speedWind from/ knotsBaromVisibWave heightAir tempDewpointWater temp
2017-Nov-24 03:29N 14°36' W 061°03'0 0.0
2017-Nov-24 02:59N 14°36' W 061°03'0 0.0
2017-Nov-24 02:29N 14°36' W 061°03'0 0.0
2017-Nov-24 01:59N 14°36' W 061°03'0 0.0
2017-Nov-24 01:29N 14°36' W 061°03'0 0.0
2017-Nov-24 00:59N 14°36' W 061°03'0 0.0
2017-Nov-24 00:29N 14°36' W 061°03'0 0.0
2017-Nov-23 23:59N 14°36' W 061°03'0 0.0
2017-Nov-23 23:26N 14°36' W 061°03'0 0.0
2017-Nov-23 22:59N 14°36' W 061°03'0 0.0
2017-Nov-23 22:26N 14°36' W 061°03'0 0.0
2017-Nov-23 21:53N 14°36' W 061°03'0 0.0
2017-Nov-23 21:23N 14°36' W 061°03'0 0.0
2017-Nov-23 20:23N 14°36' W 061°03'0 0.0
2017-Nov-23 19:53N 14°36' W 061°03'0 0.1
2017-Nov-23 15:41N 14°35' W 061°03'1 3.1
2017-Nov-23 15:30N 14°36' W 061°04'0 0.0
2017-Nov-23 11:32N 14°36' W 061°04'0 0.0
2017-Nov-23 11:05N 14°36' W 061°04'0 0.0
2017-Nov-23 10:56N 14°36' W 061°04'0 0.0
2017-Nov-23 10:02N 14°36' W 061°04'0 0.0
2017-Nov-23 09:50N 14°36' W 061°04'0 0.0
2017-Nov-23 06:14N 14°36' W 061°04'0 0.0
2017-Nov-23 05:50N 14°36' W 061°04'0 0.0
2017-Nov-23 05:26N 14°36' W 061°04'  
2017-Nov-20 00:15N 14°42' W 061°30'5910.6
2017-Nov-19 18:41N 15°41' W 061°34'2610.3
2017-Nov-19 16:08N 16°06' W 061°27'111.1
2017-Nov-19 16:00N 16°07' W 061°28'5 9.3
2017-Nov-19 15:27N 16°11' W 061°31'3 5.5
2017-Nov-19 14:55N 16°14' W 061°33'0 0.0
2017-Nov-19 14:28N 16°14' W 061°33'0 0.0
2017-Nov-19 13:58N 16°14' W 061°33'0 0.0
2017-Nov-19 13:28N 16°14' W 061°33'0 0.0
2017-Nov-19 12:58N 16°14' W 061°33'0 0.0
2017-Nov-19 12:28N 16°14' W 061°33'0 0.0
2017-Nov-19 11:58N 16°14' W 061°33'0 0.0
2017-Nov-19 11:28N 16°14' W 061°33'0 0.0
2017-Nov-19 10:58N 16°14' W 061°33'0 0.0
2017-Nov-19 10:28N 16°14' W 061°33'0 0.0
2017-Nov-19 09:58N 16°14' W 061°33'0 0.0
2017-Nov-19 09:28N 16°14' W 061°33'0 0.0
2017-Nov-19 08:58N 16°14' W 061°33'0 0.0
2017-Nov-19 08:28N 16°14' W 061°33'0 0.0
2017-Nov-19 07:58N 16°14' W 061°33'0 0.0
2017-Nov-19 07:25N 16°14' W 061°33'0 0.0
2017-Nov-19 06:58N 16°14' W 061°33'0 0.0
2017-Nov-19 06:28N 16°14' W 061°33'0 0.0
2017-Nov-19 05:58N 16°14' W 061°33'0 0.0
2017-Nov-19 05:28N 16°14' W 061°33'0 0.0
2017-Nov-19 04:58N 16°14' W 061°33'0 0.0
2017-Nov-19 04:28N 16°14' W 061°33'0 0.0
2017-Nov-19 03:58N 16°14' W 061°33'0 0.0
2017-Nov-19 03:28N 16°14' W 061°33'0 0.0
2017-Nov-19 02:58N 16°14' W 061°33'0 0.0
2017-Nov-19 02:28N 16°14' W 061°33'0 0.0
2017-Nov-19 01:58N 16°14' W 061°33'0 0.0
2017-Nov-19 01:28N 16°14' W 061°33'0 0.0
2017-Nov-19 00:58N 16°14' W 061°33'0 0.0
2017-Nov-19 00:28N 16°14' W 061°33'0 0.0
2017-Nov-18 23:58N 16°14' W 061°33'0 0.0
2017-Nov-18 23:28N 16°14' W 061°33'0 0.0
2017-Nov-18 22:58N 16°14' W 061°33'0 0.0
2017-Nov-18 22:28N 16°14' W 061°33'0 0.0
2017-Nov-18 21:58N 16°14' W 061°33'0 0.0
2017-Nov-18 21:28N 16°14' W 061°33'0 0.0
2017-Nov-18 20:58N 16°14' W 061°33'0 0.0
2017-Nov-18 20:28N 16°14' W 061°33'0 0.0
2017-Nov-18 19:55N 16°14' W 061°33'0 0.0
2017-Nov-18 19:28N 16°14' W 061°33'0 0.0
2017-Nov-18 18:52N 16°14' W 061°33'0 0.0
2017-Nov-18 18:28N 16°14' W 061°33'0 0.0
2017-Nov-18 17:58N 16°14' W 061°33'0 0.0
2017-Nov-18 17:28N 16°14' W 061°33'0 0.0
2017-Nov-18 16:58N 16°14' W 061°33'0 0.0
2017-Nov-18 16:28N 16°14' W 061°33'0 0.0
2017-Nov-18 15:55N 16°14' W 061°33'0 0.0
2017-Nov-18 15:28N 16°14' W 061°33'0 0.0
2017-Nov-18 14:55N 16°14' W 061°33'0 0.0
2017-Nov-18 14:25N 16°14' W 061°33'0 0.0
2017-Nov-18 13:55N 16°14' W 061°33'0 0.0
2017-Nov-18 13:28N 16°14' W 061°33'0 0.0
2017-Nov-18 12:58N 16°14' W 061°33'0 0.0
2017-Nov-18 12:25N 16°14' W 061°33'0 0.0
2017-Nov-18 11:58N 16°14' W 061°33'0 0.0
2017-Nov-18 11:28N 16°14' W 061°33'0 0.0
2017-Nov-18 10:58N 16°14' W 061°33'0 0.0
2017-Nov-18 10:28N 16°14' W 061°33'0 0.0
2017-Nov-18 09:58N 16°14' W 061°33'0 0.0
2017-Nov-18 09:25N 16°14' W 061°33'0 0.0
2017-Nov-18 08:58N 16°14' W 061°33'0 0.0
2017-Nov-18 08:28N 16°14' W 061°33'0 0.0
2017-Nov-18 07:58N 16°14' W 061°33'0 0.0
2017-Nov-18 07:28N 16°14' W 061°33'0 0.0
2017-Nov-18 06:55N 16°14' W 061°33'0 0.0
2017-Nov-18 06:25N 16°14' W 061°33'0 0.0
2017-Nov-18 05:58N 16°14' W 061°33'0 0.0
2017-Nov-18 05:28N 16°14' W 061°33'0 0.0
2017-Nov-18 04:58N 16°14' W 061°33'0 0.0
2017-Nov-18 04:28N 16°14' W 061°33'0 0.0
2017-Nov-18 03:58N 16°14' W 061°33'0 0.0
2017-Nov-18 03:28N 16°14' W 061°33'0 0.0
2017-Nov-18 02:58N 16°14' W 061°33'0 0.0
2017-Nov-18 02:28N 16°14' W 061°33'0 0.0
2017-Nov-18 01:58N 16°14' W 061°33'0 0.0
2017-Nov-18 01:22N 16°14' W 061°33'0 0.0
2017-Nov-18 00:58N 16°14' W 061°33'0 0.0
2017-Nov-18 00:28N 16°14' W 061°33'0 0.0
2017-Nov-17 23:58N 16°14' W 061°33'0 0.0
2017-Nov-17 23:28N 16°14' W 061°33'0 0.0
2017-Nov-17 22:58N 16°14' W 061°33'0 0.0
2017-Nov-17 22:22N 16°14' W 061°33'0 0.0
2017-Nov-17 21:58N 16°14' W 061°33'0 0.0
2017-Nov-17 21:28N 16°14' W 061°33'0 0.0
2017-Nov-17 20:58N 16°14' W 061°33'0 0.0
2017-Nov-17 20:28N 16°14' W 061°33'0 0.0
2017-Nov-17 19:55N 16°14' W 061°33'0 0.0
2017-Nov-17 19:28N 16°14' W 061°33'0 0.0
2017-Nov-17 18:58N 16°14' W 061°33'0 0.0
2017-Nov-17 18:25N 16°14' W 061°33'0 0.0
2017-Nov-17 17:58N 16°14' W 061°33'0 0.0
2017-Nov-17 17:25N 16°14' W 061°33'0 0.0
2017-Nov-17 16:58N 16°14' W 061°33'0 0.0
2017-Nov-17 16:25N 16°14' W 061°33'0 0.0
2017-Nov-17 15:58N 16°14' W 061°33'0 0.0
2017-Nov-17 15:19N 16°14' W 061°33'0 0.0
2017-Nov-17 14:58N 16°14' W 061°33'0 0.0
2017-Nov-17 14:28N 16°14' W 061°33'0 0.0
2017-Nov-17 13:58N 16°14' W 061°33'0 0.0
2017-Nov-17 13:28N 16°14' W 061°33'0 0.0
2017-Nov-17 12:49N 16°14' W 061°33'0 0.0
2017-Nov-17 12:28N 16°14' W 061°33'0 0.0
2017-Nov-17 11:58N 16°14' W 061°33'0 0.0
2017-Nov-17 11:25N 16°14' W 061°33'0 0.0
2017-Nov-17 10:55N 16°14' W 061°33'0 0.0
2017-Nov-17 10:28N 16°14' W 061°33'0 0.0
2017-Nov-17 09:55N 16°14' W 061°33'0 0.0
2017-Nov-17 09:19N 16°14' W 061°33'0 0.0
2017-Nov-17 08:58N 16°14' W 061°33'0 0.0
2017-Nov-17 08:25N 16°14' W 061°33'0 0.0
2017-Nov-17 07:55N 16°14' W 061°33'0 0.0
2017-Nov-17 07:28N 16°14' W 061°33'0 0.0
2017-Nov-17 06:58N 16°14' W 061°33'0 0.0
2017-Nov-17 06:22N 16°14' W 061°33'0 0.0
2017-Nov-17 05:58N 16°14' W 061°33'0 0.0
2017-Nov-17 05:28N 16°14' W 061°33'0 0.0
2017-Nov-17 04:55N 16°14' W 061°33'0 0.0
2017-Nov-17 04:28N 16°14' W 061°33'0 0.0
2017-Nov-17 03:58N 16°14' W 061°33'0 0.0
2017-Nov-17 03:25N 16°14' W 061°33'0 0.0
2017-Nov-17 02:58N 16°14' W 061°33'0 0.0
2017-Nov-17 02:28N 16°14' W 061°33'0 0.0
2017-Nov-17 01:52N 16°14' W 061°33'0 0.0
2017-Nov-17 01:22N 16°14' W 061°33'0 0.0
2017-Nov-17 01:00N 16°14' W 061°33'0 0.2
2017-Nov-17 00:30N 16°14' W 061°33'1 1.4
2017-Nov-17 00:00N 16°14' W 061°32'4 8.3
2017-Nov-16 23:30N 16°10' W 061°31'811.1
2017-Nov-16 22:45N 16°01' W 061°30'1510.9
2017-Nov-16 21:24N 15°47' W 061°34'711.0
2017-Nov-16 20:48N 15°47' W 061°41'12 0.3
2017-Nov-15 08:53N 15°58' W 061°46'1 2.9
2017-Nov-15 08:26N 15°59' W 061°45'3 7.9
2017-Nov-15 08:00N 16°00' W 061°48'610.7
2017-Nov-15 07:28N 16°03' W 061°54'4 3.1
2017-Nov-15 06:10N 16°04' W 061°58'211.4
2017-Nov-15 05:57N 16°06' W 061°58'511.2
2017-Nov-15 05:30N 16°11' W 061°59'611.5
2017-Nov-15 05:00N 16°17' W 062°01'611.6
2017-Nov-15 04:30N 16°22' W 062°02'611.4
2017-Nov-15 04:00N 16°28' W 062°03'3 6.2
2017-Nov-15 03:30N 16°29' W 062°06'611.6
2017-Nov-15 03:00N 16°23' W 062°06'611.6
2017-Nov-15 02:30N 16°18' W 062°06'12 6.5
2017-Nov-15 00:40N 16°09' W 062°15'210.4
2017-Nov-15 00:29N 16°11' W 062°15'511.1
2017-Nov-15 00:00N 16°16' W 062°15'611.8
2017-Nov-14 23:30N 16°22' W 062°15'611.3
2017-Nov-14 22:59N 16°25' W 062°10'611.7
2017-Nov-14 22:30N 16°28' W 062°04'611.6
2017-Nov-14 22:00N 16°30' W 061°59'611.7
2017-Nov-14 21:30N 16°32' W 061°53'611.8
2017-Nov-14 21:00N 16°35' W 061°48'611.3
2017-Nov-14 20:30N 16°37' W 061°42'611.4
2017-Nov-14 20:00N 16°40' W 061°37'611.6
2017-Nov-14 19:30N 16°42' W 061°32'611.7
2017-Nov-14 19:00N 16°45' W 061°26'611.8
2017-Nov-14 18:30N 16°47' W 061°21'611.8
2017-Nov-14 18:00N 16°50' W 061°15'611.4
2017-Nov-14 17:30N 16°52' W 061°10'611.3
2017-Nov-14 17:00N 16°55' W 061°04'611.4
2017-Nov-14 16:30N 16°57' W 060°59'  

Dump ship's entire track history